Time;durP1;ratioP1;P1;durP2;ratioP2;P2;SDS_P1;SDS_P2;PMS_P1;PMS_P2;Temp;Humidity;BMP_temperature;BMP_pressure;BME280_temperature;BME280_humidity;BME280_pressure;Samples;Min_cycle;Max_cycle;Signal;HPM_P1;HPM_P2
2022/11/03 00:00:33;;;;;;;9.00;6.20;;;9.40;99.90;;;;;;5095955;28;20541;-66
2022/11/03 00:03:00;;;;;;;13.63;6.40;;;9.40;99.90;;;;;;5095549;28;20514;-66
2022/11/03 00:08:11;;;;;;;11.77;6.13;;;9.30;99.90;;;;;;5095424;28;20424;-66
2022/11/03 00:10:38;;;;;;;10.57;5.67;;;9.30;99.90;;;;;;5095768;28;20541;-68
2022/11/03 00:13:04;;;;;;;31.17;19.40;;;9.30;99.90;;;;;;5095094;28;20483;-68
2022/11/03 00:15:33;;;;;;;9.27;6.37;;;9.30;99.90;;;;;;5095623;28;20480;-67
2022/11/03 00:18:00;;;;;;;11.13;5.93;;;9.40;99.90;;;;;;5095398;28;20544;-66
2022/11/03 00:20:27;;;;;;;11.23;5.50;;;9.40;99.90;;;;;;5095475;28;20544;-66
2022/11/03 00:22:54;;;;;;;8.27;5.70;;;9.40;99.90;;;;;;5095626;28;20457;-67
2022/11/03 00:25:21;;;;;;;7.80;5.90;;;9.40;99.90;;;;;;5097064;28;20518;-66
2022/11/03 00:27:54;;;;;;;7.10;5.10;;;9.30;99.90;;;;;;5098455;28;20521;-66
2022/11/03 00:30:21;;;;;;;11.43;5.83;;;9.30;99.90;;;;;;5097208;28;20466;-66
2022/11/03 00:32:50;;;;;;;6.30;5.10;;;9.30;99.90;;;;;;5096184;28;20497;-66
2022/11/03 00:35:17;;;;;;;12.47;5.90;;;9.30;99.90;;;;;;5096150;28;20801;-66
2022/11/03 00:37:43;;;;;;;13.37;6.00;;;9.30;99.90;;;;;;5095653;28;20493;-66
2022/11/03 00:40:11;;;;;;;7.73;5.10;;;9.20;99.90;;;;;;5095322;28;20518;-67
2022/11/03 00:42:38;;;;;;;7.37;5.10;;;9.20;99.90;;;;;;5095569;28;20461;-66
2022/11/03 00:45:06;;;;;;;9.07;5.30;;;9.10;99.90;;;;;;5095521;28;20469;-67
2022/11/03 00:47:33;;;;;;;8.43;5.40;;;9.10;99.90;;;;;;5095552;28;20457;-67
2022/11/03 00:50:01;;;;;;;10.03;5.37;;;9.10;99.90;;;;;;5095267;28;20504;-67
2022/11/03 00:52:28;;;;;;;9.50;4.97;;;9.00;99.90;;;;;;5099852;28;20594;-67
2022/11/03 00:54:55;;;;;;;8.13;5.23;;;9.00;99.90;;;;;;5099416;28;20491;-67
2022/11/03 00:57:22;;;;;;;9.73;5.47;;;9.00;99.90;;;;;;5099463;28;20461;-66
2022/11/03 00:59:49;;;;;;;7.57;5.00;;;9.00;99.90;;;;;;5099427;28;20536;-67
2022/11/03 01:02:16;;;;;;;7.73;5.50;;;9.00;99.90;;;;;;5099524;28;20461;-67
2022/11/03 01:07:28;;;;;;;9.30;5.10;;;8.90;99.90;;;;;;5099585;28;20445;-67
2022/11/03 01:09:55;;;;;;;11.73;5.07;;;8.90;99.90;;;;;;5099079;28;20512;-67
2022/11/03 01:12:22;;;;;;;7.90;4.60;;;8.90;99.90;;;;;;5099403;28;20500;-66
2022/11/03 01:14:50;;;;;;;8.27;5.20;;;8.90;99.90;;;;;;5099010;28;20549;-65
2022/11/03 01:17:20;;;;;;;7.30;4.80;;;8.90;99.90;;;;;;5099357;28;20481;-66
2022/11/03 01:19:47;;;;;;;6.50;4.73;;;8.80;99.90;;;;;;5099182;28;20434;-67
2022/11/03 01:22:15;;;;;;;9.20;5.07;;;8.80;99.90;;;;;;5099314;28;20460;-67
2022/11/03 01:24:44;;;;;;;11.43;5.60;;;8.80;99.90;;;;;;5099073;28;20547;-66
2022/11/03 01:27:12;;;;;;;13.57;5.00;;;8.80;99.90;;;;;;5099071;28;20483;-67
2022/11/03 01:29:40;;;;;;;9.23;5.10;;;8.80;99.90;;;;;;5098685;28;20499;-67
2022/11/03 01:32:08;;;;;;;9.57;5.20;;;8.80;99.90;;;;;;5098412;28;20998;-67
2022/11/03 01:34:35;;;;;;;7.77;4.60;;;8.70;99.90;;;;;;5099070;28;20453;-68
2022/11/03 01:37:02;;;;;;;10.17;5.27;;;8.70;99.90;;;;;;5098427;28;20522;-68
2022/11/03 01:39:29;;;;;;;9.60;5.70;;;8.70;99.90;;;;;;5098869;28;20768;-67
2022/11/03 01:41:58;;;;;;;9.53;4.67;;;8.70;99.90;;;;;;5098581;28;20518;-66
2022/11/03 01:44:34;;;;;;;11.90;5.13;;;8.70;99.90;;;;;;5098378;28;20463;-66
2022/11/03 01:47:19;;;;;;;11.77;4.90;;;8.70;99.90;;;;;;5098610;28;20469;-66
2022/11/03 01:49:49;;;;;;;8.80;4.47;;;8.60;99.90;;;;;;5098474;28;20552;-66
2022/11/03 01:52:22;;;;;;;5.63;4.20;;;8.60;99.90;;;;;;5098517;28;20453;-67
2022/11/03 01:54:53;;;;;;;7.77;3.60;;;8.60;99.90;;;;;;5098167;28;20433;-67
2022/11/03 01:57:26;;;;;;;5.97;3.73;;;8.60;99.90;;;;;;5098335;28;20495;-67
2022/11/03 01:59:56;;;;;;;9.87;5.00;;;8.60;99.90;;;;;;5098082;28;20469;-67
2022/11/03 02:02:24;;;;;;;13.40;4.33;;;8.60;99.90;;;;;;5097023;28;20925;-67
2022/11/03 02:04:51;;;;;;;18.43;4.17;;;8.60;99.90;;;;;;5098131;28;20485;-67
2022/11/03 02:07:24;;;;;;;10.57;4.13;;;8.60;99.90;;;;;;5097775;28;20524;-67
2022/11/03 02:09:51;;;;;;;9.80;4.70;;;8.60;99.90;;;;;;5098214;28;20835;-67
2022/11/03 02:12:22;;;;;;;8.80;4.40;;;8.60;99.90;;;;;;5097647;28;20491;-67
2022/11/03 02:14:53;;;;;;;10.70;5.17;;;8.60;99.90;;;;;;5097830;28;20489;-66
2022/11/03 02:17:23;;;;;;;9.60;5.17;;;8.60;99.90;;;;;;5097723;28;20549;-67
2022/11/03 02:19:56;;;;;;;10.47;4.90;;;8.50;99.90;;;;;;5097917;28;20939;-66
2022/11/03 02:22:35;;;;;;;6.97;4.27;;;8.50;99.90;;;;;;5098216;28;20445;-66
2022/11/03 02:25:12;;;;;;;11.07;4.77;;;8.40;99.90;;;;;;5097891;28;20441;-66
2022/11/03 02:27:40;;;;;;;13.97;4.53;;;8.40;99.90;;;;;;5098079;28;20471;-66
2022/11/03 02:30:09;;;;;;;12.13;4.30;;;8.40;99.90;;;;;;5098189;28;20489;-67
2022/11/03 02:32:44;;;;;;;5.80;3.97;;;8.30;99.90;;;;;;5097843;28;20515;-66
2022/11/03 02:35:15;;;;;;;9.73;4.03;;;8.30;99.90;;;;;;5098092;28;20520;-66
2022/11/03 02:37:47;;;;;;;12.10;3.90;;;8.20;99.90;;;;;;5097833;28;20469;-67
2022/11/03 02:40:17;;;;;;;12.07;4.43;;;8.20;99.90;;;;;;5097430;28;20830;-67
2022/11/03 02:42:49;;;;;;;7.53;4.10;;;8.20;99.90;;;;;;5097868;28;20971;-67
2022/11/03 02:45:19;;;;;;;6.60;3.83;;;8.20;99.90;;;;;;5098091;28;20449;-67
2022/11/03 02:47:47;;;;;;;9.30;4.33;;;8.20;99.90;;;;;;5097513;28;20949;-67
2022/11/03 02:50:15;;;;;;;7.43;4.13;;;8.10;99.90;;;;;;5097368;28;20564;-65
2022/11/03 02:52:43;;;;;;;7.67;4.13;;;8.10;99.90;;;;;;5097280;28;20457;-67
2022/11/03 02:55:18;;;;;;;9.63;3.70;;;8.10;99.90;;;;;;5097668;28;20457;-66
2022/11/03 02:57:52;;;;;;;10.90;4.50;;;8.10;99.90;;;;;;5096799;28;20514;-66
2022/11/03 03:00:20;;;;;;;9.90;3.77;;;8.10;99.90;;;;;;5097280;28;20433;-67
2022/11/03 03:02:52;;;;;;;6.23;3.40;;;8.10;99.90;;;;;;5098183;28;20758;-66
2022/11/03 03:05:23;;;;;;;4.63;3.47;;;8.10;99.90;;;;;;5096796;28;20438;-66
2022/11/03 03:07:53;;;;;;;8.53;3.90;;;8.10;99.90;;;;;;5097265;28;20848;-67
2022/11/03 03:10:24;;;;;;;4.90;3.50;;;8.10;99.90;;;;;;5096474;28;20507;-66
2022/11/03 03:12:54;;;;;;;7.90;3.93;;;8.00;99.90;;;;;;5097541;28;20533;-67
2022/11/03 03:15:27;;;;;;;11.43;3.77;;;8.00;99.90;;;;;;5097284;28;20503;-66
2022/11/03 03:17:59;;;;;;;9.53;4.87;;;8.00;99.90;;;;;;5097638;28;20478;-67
2022/11/03 03:20:31;;;;;;;7.07;3.60;;;8.00;99.90;;;;;;5097527;28;20434;-66
2022/11/03 03:23:02;;;;;;;8.43;3.60;;;8.00;99.90;;;;;;5096659;28;20493;-67
2022/11/03 03:25:33;;;;;;;7.17;3.93;;;7.90;99.90;;;;;;5096898;28;20457;-67
2022/11/03 03:28:04;;;;;;;12.60;4.10;;;7.90;99.90;;;;;;5097156;28;20510;-67
2022/11/03 03:30:36;;;;;;;7.03;4.07;;;7.90;99.90;;;;;;5097115;28;20465;-67
2022/11/03 03:33:05;;;;;;;5.30;3.40;;;7.90;99.90;;;;;;5096944;28;20897;-65
2022/11/03 03:35:34;;;;;;;8.20;4.07;;;7.90;99.90;;;;;;5096898;28;20464;-67
2022/11/03 03:38:07;;;;;;;6.10;5.20;;;7.80;99.90;;;;;;5096283;28;20457;-67
2022/11/03 03:40:37;;;;;;;7.83;4.00;;;7.80;99.90;;;;;;5096636;28;20511;-67
2022/11/03 03:43:08;;;;;;;7.37;4.20;;;7.80;99.90;;;;;;5096668;28;20543;-66
2022/11/03 03:45:36;;;;;;;4.40;3.60;;;7.90;99.90;;;;;;5096982;28;20766;-67
2022/11/03 03:48:05;;;;;;;3.83;3.43;;;7.90;99.90;;;;;;5097105;28;20518;-66
2022/11/03 03:50:37;;;;;;;8.47;3.57;;;7.80;99.90;;;;;;5098022;28;20508;-66
2022/11/03 03:53:06;;;;;;;6.47;3.70;;;7.80;99.90;;;;;;5097157;28;20476;-67
2022/11/03 03:55:36;;;;;;;9.67;3.77;;;7.90;99.90;;;;;;5096154;28;20518;-67
2022/11/03 03:58:05;;;;;;;6.47;3.53;;;7.90;99.90;;;;;;5095956;28;20544;-67
2022/11/03 04:00:33;;;;;;;8.70;4.13;;;7.80;99.90;;;;;;5096033;28;20942;-66
2022/11/03 04:03:00;;;;;;;9.50;3.83;;;7.90;99.90;;;;;;5096323;28;20485;-67
2022/11/03 04:05:27;;;;;;;11.30;5.10;;;7.90;99.90;;;;;;5096458;28;20473;-68
2022/11/03 04:07:55;;;;;;;9.70;3.60;;;7.80;99.90;;;;;;5095990;28;20514;-66
2022/11/03 04:10:23;;;;;;;6.97;5.00;;;7.80;99.90;;;;;;5095888;28;20484;-67
2022/11/03 04:23:56;;;;;;;11.30;4.63;;;7.80;99.90;;;;;;5056020;28;20556;-66
2022/11/03 04:26:23;;;;;;;9.70;4.30;;;7.80;99.90;;;;;;5055263;28;20493;-66
2022/11/03 04:28:52;;;;;;;6.60;3.40;;;7.80;99.90;;;;;;5055945;28;20484;-67
2022/11/03 04:31:21;;;;;;;9.37;3.80;;;7.80;99.90;;;;;;5055506;28;20565;-67
2022/11/03 04:33:49;;;;;;;8.27;3.73;;;7.90;99.90;;;;;;5055239;28;20928;-67
2022/11/03 04:36:20;;;;;;;8.13;4.20;;;7.90;99.90;;;;;;5055157;28;20850;-66
2022/11/03 04:38:47;;;;;;;7.77;4.50;;;7.90;99.90;;;;;;5054985;28;20463;-67
2022/11/03 04:41:17;;;;;;;7.83;4.10;;;8.00;99.90;;;;;;5055661;28;20842;-67
2022/11/03 04:43:45;;;;;;;12.33;5.37;;;8.00;99.90;;;;;;5055363;28;20562;-66
2022/11/03 04:46:15;;;;;;;6.53;3.67;;;8.00;99.90;;;;;;5055406;28;20931;-67
2022/11/03 04:48:46;;;;;;;8.30;3.77;;;8.00;99.90;;;;;;5055333;28;20950;-67
2022/11/03 04:51:16;;;;;;;7.30;3.53;;;8.10;99.90;;;;;;5054938;28;20812;-67
2022/11/03 04:53:49;;;;;;;8.20;3.90;;;8.10;99.90;;;;;;5055265;28;20666;-66
2022/11/03 04:56:20;;;;;;;9.33;4.13;;;8.10;99.90;;;;;;5055354;28;20535;-67
2022/11/03 04:58:48;;;;;;;8.03;4.53;;;8.10;99.90;;;;;;5055644;28;20501;-66
2022/11/03 05:01:18;;;;;;;7.77;3.50;;;8.10;99.90;;;;;;5055399;28;20451;-67
2022/11/03 05:03:49;;;;;;;6.37;3.93;;;8.10;99.90;;;;;;5055212;28;20444;-66
2022/11/03 05:06:18;;;;;;;10.73;4.13;;;8.10;99.90;;;;;;5055411;28;20547;-65
2022/11/03 05:08:49;;;;;;;9.13;4.63;;;8.10;99.90;;;;;;5055359;28;20558;-67
2022/11/03 05:11:21;;;;;;;7.43;4.20;;;8.00;99.90;;;;;;5054625;28;20467;-67
2022/11/03 05:13:49;;;;;;;7.03;4.40;;;8.00;99.90;;;;;;5054863;28;20491;-67
2022/11/03 05:16:17;;;;;;;6.00;4.10;;;7.90;99.90;;;;;;5055071;28;20477;-66
2022/11/03 05:18:49;;;;;;;8.50;4.73;;;7.90;99.90;;;;;;5087174;28;20480;-66
2022/11/03 05:21:18;;;;;;;8.00;4.23;;;7.90;99.90;;;;;;5095313;28;20509;-66
2022/11/03 05:23:47;;;;;;;9.97;4.17;;;7.80;99.90;;;;;;5094865;28;20560;-66
2022/11/03 05:26:18;;;;;;;7.80;4.80;;;7.80;99.90;;;;;;5095252;28;20467;-67
2022/11/03 05:28:48;;;;;;;10.10;4.87;;;7.80;99.90;;;;;;5095278;28;20536;-67
2022/11/03 05:31:21;;;;;;;8.90;4.20;;;7.70;99.90;;;;;;5094661;28;20514;-65
2022/11/03 05:33:51;;;;;;;6.67;4.73;;;7.70;99.90;;;;;;5095363;28;20805;-67
2022/11/03 05:36:22;;;;;;;12.17;5.33;;;7.70;99.90;;;;;;5096162;28;20493;-67
2022/11/03 05:38:49;;;;;;;12.37;5.20;;;7.70;99.90;;;;;;5099033;28;20498;-67
2022/11/03 05:41:22;;;;;;;7.30;4.63;;;7.70;99.90;;;;;;5098701;28;20453;-67
2022/11/03 05:43:57;;;;;;;7.30;4.57;;;7.70;99.90;;;;;;5098787;28;20437;-68
2022/11/03 05:46:27;;;;;;;7.97;4.70;;;7.60;99.90;;;;;;5098830;28;20936;-67
2022/11/03 05:48:56;;;;;;;5.90;4.77;;;7.60;99.90;;;;;;5098431;28;20957;-66
2022/11/03 05:51:28;;;;;;;9.67;5.20;;;7.60;99.90;;;;;;5098413;28;20876;-67
2022/11/03 05:53:58;;;;;;;9.50;5.27;;;7.60;99.90;;;;;;5098146;28;20473;-66
2022/11/03 05:56:26;;;;;;;11.33;4.90;;;7.60;99.90;;;;;;5098232;28;20553;-66
2022/11/03 05:58:56;;;;;;;8.03;5.20;;;7.60;99.90;;;;;;5098197;28;20456;-67
2022/11/03 06:01:28;;;;;;;12.33;5.40;;;7.60;99.90;;;;;;5098287;28;20484;-67
2022/11/03 06:03:57;;;;;;;15.07;7.50;;;7.60;99.90;;;;;;5098403;28;20477;-68
2022/11/03 06:06:28;;;;;;;10.67;6.27;;;7.60;99.90;;;;;;5098416;28;20536;-68
2022/11/03 06:08:56;;;;;;;6.80;4.70;;;7.60;99.90;;;;;;5098822;28;20826;-66
2022/11/03 06:11:28;;;;;;;9.87;4.60;;;7.60;99.90;;;;;;5098533;28;20512;-66
2022/11/03 06:13:57;;;;;;;7.30;4.33;;;7.50;99.90;;;;;;5097970;28;20514;-67
2022/11/03 06:16:38;;;;;;;8.30;5.47;;;7.50;99.90;;;;;;5098758;28;20787;-65
2022/11/03 06:19:22;;;;;;;11.87;5.67;;;7.50;99.90;;;;;;5098034;28;20861;-65
2022/11/03 06:21:51;;;;;;;11.60;6.20;;;7.40;99.90;;;;;;5098155;28;20466;-65
2022/11/03 06:24:20;;;;;;;10.70;6.27;;;7.40;99.90;;;;;;5098001;28;20540;-66
2022/11/03 06:26:49;;;;;;;10.10;5.33;;;7.50;99.90;;;;;;5098423;28;20457;-67
2022/11/03 06:29:18;;;;;;;13.00;6.60;;;7.40;99.90;;;;;;5098040;28;20457;-67
2022/11/03 06:31:48;;;;;;;7.00;4.60;;;7.30;99.90;;;;;;5097973;28;20477;-67
2022/11/03 06:34:28;;;;;;;7.37;4.50;;;7.40;99.90;;;;;;5098074;28;20457;-66
2022/11/03 06:36:57;;;;;;;7.10;4.57;;;7.40;99.90;;;;;;5097868;28;20469;-67
2022/11/03 06:39:24;;;;;;;8.80;4.60;;;7.40;99.90;;;;;;5098026;28;20459;-67
2022/11/03 06:41:52;;;;;;;15.67;5.97;;;7.40;99.90;;;;;;5097464;28;20533;-67
2022/11/03 06:44:26;;;;;;;13.03;5.60;;;7.40;99.90;;;;;;5097635;28;20499;-67
2022/11/03 06:46:55;;;;;;;11.63;4.93;;;7.40;99.90;;;;;;5097480;28;20534;-66
2022/11/03 06:49:30;;;;;;;12.67;4.27;;;7.40;99.90;;;;;;5097880;28;20540;-66
2022/11/03 06:52:02;;;;;;;7.80;4.83;;;7.40;99.90;;;;;;5097705;28;20941;-66
2022/11/03 06:54:29;;;;;;;9.03;4.73;;;7.40;99.90;;;;;;5097492;28;20446;-68
2022/11/03 06:56:56;;;;;;;16.43;8.90;;;7.40;99.90;;;;;;5097311;28;20493;-68
2022/11/03 06:59:24;;;;;;;8.07;4.73;;;7.50;99.90;;;;;;5097763;28;20824;-67
2022/11/03 07:01:55;;;;;;;14.00;5.03;;;7.50;99.90;;;;;;5097912;28;20770;-68
2022/11/03 07:04:27;;;;;;;7.90;4.60;;;7.50;99.90;;;;;;5097094;28;20446;-67
2022/11/03 07:07:00;;;;;;;9.70;5.00;;;7.60;99.90;;;;;;5097598;28;20442;-67
2022/11/03 07:09:27;;;;;;;9.73;5.00;;;7.60;99.90;;;;;;5097347;28;20525;-67
2022/11/03 07:11:56;;;;;;;10.60;5.90;;;7.60;99.90;;;;;;5098231;28;20526;-66
2022/11/03 07:14:27;;;;;;;11.17;5.27;;;7.60;99.90;;;;;;5098446;28;20511;-67
2022/11/03 07:16:57;;;;;;;12.80;5.20;;;7.60;99.90;;;;;;5097825;28;20961;-67
2022/11/03 07:19:27;;;;;;;15.77;5.20;;;7.70;99.90;;;;;;5097014;28;20437;-66
2022/11/03 07:21:58;;;;;;;10.03;5.40;;;7.70;99.90;;;;;;5097812;28;20461;-66
2022/11/03 07:24:27;;;;;;;10.83;5.70;;;7.70;99.90;;;;;;5096768;28;20457;-67
2022/11/03 07:26:59;;;;;;;9.70;5.23;;;7.80;99.90;;;;;;5097015;28;20536;-67
2022/11/03 07:29:28;;;;;;;14.50;6.23;;;7.80;99.90;;;;;;5096695;28;20467;-68
2022/11/03 07:31:58;;;;;;;10.93;4.80;;;7.90;99.90;;;;;;5096713;28;20564;-67
2022/11/03 07:34:29;;;;;;;13.00;5.37;;;7.90;99.90;;;;;;5096351;28;20545;-67
2022/11/03 07:36:58;;;;;;;9.73;4.90;;;8.00;99.90;;;;;;5096079;28;20937;-67
2022/11/03 07:39:36;;;;;;;10.43;5.70;;;8.10;99.90;;;;;;5096435;28;20485;-67
2022/11/03 07:42:08;;;;;;;18.10;5.57;;;8.00;99.90;;;;;;5096433;28;20881;-66
2022/11/03 07:44:35;;;;;;;17.80;7.17;;;8.10;99.90;;;;;;5096134;28;20481;-67
2022/11/03 07:47:04;;;;;;;15.03;6.00;;;8.20;99.90;;;;;;5096389;28;20500;-67
2022/11/03 07:49:31;;;;;;;14.50;5.90;;;8.20;99.90;;;;;;5095999;28;20933;-67
2022/11/03 07:52:00;;;;;;;10.50;4.87;;;8.30;99.90;;;;;;5096203;28;20538;-67
2022/11/03 07:54:31;;;;;;;10.80;5.50;;;8.30;99.90;;;;;;5096080;28;20458;-67
2022/11/03 07:57:00;;;;;;;11.07;5.27;;;8.40;99.90;;;;;;5096210;28;20461;-67
2022/11/03 07:59:31;;;;;;;15.67;5.40;;;8.40;99.90;;;;;;5095754;28;20834;-67
2022/11/03 08:01:58;;;;;;;10.43;4.50;;;8.50;99.90;;;;;;5095654;28;20528;-68
2022/11/03 08:04:27;;;;;;;15.80;6.07;;;8.60;99.90;;;;;;5098014;28;20522;-66
2022/11/03 08:06:54;;;;;;;17.90;5.87;;;8.70;99.90;;;;;;5099544;28;20530;-66
2022/11/03 08:09:22;;;;;;;11.10;4.73;;;8.80;99.90;;;;;;5099436;28;20457;-67
2022/11/03 08:11:50;;;;;;;6.57;4.57;;;8.90;99.90;;;;;;5102218;28;20516;-67
2022/11/03 08:14:17;;;;;;;14.30;5.10;;;9.00;99.90;;;;;;5096344;28;20514;-66
2022/11/03 08:16:44;;;;;;;14.53;5.23;;;9.10;99.90;;;;;;5095414;28;20485;-67
2022/11/03 08:19:11;;;;;;;10.03;4.90;;;9.10;99.90;;;;;;5095941;28;20550;-67
2022/11/03 08:21:38;;;;;;;9.53;4.67;;;9.10;99.90;;;;;;5096260;28;20795;-67
2022/11/03 08:24:06;;;;;;;12.90;5.27;;;9.20;99.90;;;;;;5095639;28;20457;-69
2022/11/03 08:26:34;;;;;;;8.63;4.40;;;9.20;99.90;;;;;;5096593;28;20540;-66
2022/11/03 08:29:01;;;;;;;8.63;4.23;;;9.20;99.90;;;;;;5095605;28;20489;-67
2022/11/03 08:31:28;;;;;;;8.70;5.00;;;9.30;99.90;;;;;;5096102;28;20477;-67
2022/11/03 08:33:55;;;;;;;9.67;4.80;;;9.30;99.90;;;;;;5095717;28;20454;-65
2022/11/03 08:36:22;;;;;;;15.30;4.70;;;9.30;99.90;;;;;;5095611;28;20978;-66
2022/11/03 08:38:49;;;;;;;8.10;4.57;;;9.40;99.90;;;;;;5095517;28;20492;-68
2022/11/03 08:41:16;;;;;;;11.77;3.90;;;9.40;99.90;;;;;;5095301;28;20485;-67
2022/11/03 08:43:46;;;;;;;13.43;5.07;;;9.40;99.90;;;;;;5095317;28;20453;-67
2022/11/03 08:46:13;;;;;;;7.13;5.17;;;9.40;99.90;;;;;;5095317;28;20553;-67
2022/11/03 08:48:40;;;;;;;13.80;4.77;;;9.50;99.90;;;;;;5095552;28;20796;-69
2022/11/03 08:51:09;;;;;;;7.60;4.33;;;9.60;99.90;;;;;;5095456;28;20473;-67
2022/11/03 08:53:37;;;;;;;7.67;4.53;;;9.70;99.90;;;;;;5095635;28;20469;-67
2022/11/03 08:56:04;;;;;;;13.57;4.23;;;9.70;99.90;;;;;;5095047;28;20558;-66
2022/11/03 08:58:31;;;;;;;15.50;4.47;;;9.80;99.90;;;;;;5095146;28;20544;-66
2022/11/03 09:01:00;;;;;;;9.97;4.57;;;9.90;99.90;;;;;;5095184;28;20539;-67
2022/11/03 09:03:26;;;;;;;6.63;3.77;;;10.00;99.90;;;;;;5095988;28;20472;-67
2022/11/03 09:05:53;;;;;;;8.00;4.50;;;10.10;99.90;;;;;;5095339;28;20560;-68
2022/11/03 09:08:20;;;;;;;10.77;3.53;;;10.20;99.90;;;;;;5095509;28;20540;-67
2022/11/03 09:10:47;;;;;;;13.20;4.70;;;10.20;99.90;;;;;;5095115;28;20844;-67
2022/11/03 09:13:14;;;;;;;7.20;3.37;;;10.30;99.90;;;;;;5099029;28;20488;-67
2022/11/03 09:15:41;;;;;;;8.40;3.43;;;10.40;99.90;;;;;;5099205;28;20453;-67
2022/11/03 09:18:09;;;;;;;9.63;3.77;;;10.50;99.90;;;;;;5099031;28;20479;-67
2022/11/03 09:20:36;;;;;;;7.40;3.60;;;10.60;99.90;;;;;;5099042;28;20940;-66
2022/11/03 09:23:03;;;;;;;8.47;3.20;;;10.70;99.90;;;;;;5098985;28;20510;-67
2022/11/03 09:25:30;;;;;;;6.43;3.33;;;10.80;99.90;;;;;;5098777;28;21005;-67
2022/11/03 09:27:57;;;;;;;7.93;5.30;;;10.80;99.90;;;;;;5098860;28;20553;-66
2022/11/03 09:30:24;;;;;;;14.43;4.20;;;10.80;99.90;;;;;;5099069;28;20507;-68
2022/11/03 09:32:51;;;;;;;5.50;3.30;;;11.00;99.90;;;;;;5099174;28;20568;-66
2022/11/03 09:35:19;;;;;;;8.20;3.43;;;11.00;99.90;;;;;;5098907;28;20521;-67
2022/11/03 09:37:46;;;;;;;4.33;3.00;;;11.10;99.90;;;;;;5098729;28;20460;-66
2022/11/03 09:40:16;;;;;;;5.43;2.97;;;11.20;99.90;;;;;;5098652;28;20545;-68
2022/11/03 09:42:43;;;;;;;6.07;3.10;;;11.20;99.90;;;;;;5099007;28;20510;-67
2022/11/03 09:45:11;;;;;;;5.30;3.07;;;11.30;99.90;;;;;;5098855;28;20449;-67
2022/11/03 09:47:40;;;;;;;8.70;3.40;;;11.30;99.90;;;;;;5098862;28;20497;-66
2022/11/03 09:50:13;;;;;;;7.07;3.10;;;11.40;99.90;;;;;;5100096;28;20460;-66
2022/11/03 09:52:42;;;;;;;8.20;3.33;;;11.40;99.90;;;;;;5101402;28;20475;-66
2022/11/03 09:55:15;;;;;;;7.77;3.00;;;11.40;99.90;;;;;;5099404;28;20925;-66
2022/11/03 09:57:42;;;;;;;9.30;3.57;;;11.50;99.90;;;;;;5098866;28;20433;-66
2022/11/03 10:00:18;;;;;;;7.40;3.77;;;11.60;99.90;;;;;;5098316;28;20467;-66
2022/11/03 10:02:46;;;;;;;7.10;3.57;;;11.70;99.90;;;;;;5098154;28;20441;-66
2022/11/03 10:05:14;;;;;;;13.30;3.40;;;11.80;99.90;;;;;;5098339;28;20535;-67
2022/11/03 10:07:44;;;;;;;6.53;3.00;;;11.80;99.90;;;;;;5098630;28;20457;-67
2022/11/03 10:10:16;;;;;;;6.27;3.00;;;11.90;99.90;;;;;;5098221;28;20465;-66
2022/11/03 10:12:44;;;;;;;9.23;3.13;;;11.90;99.90;;;;;;5098485;28;20497;-67
2022/11/03 10:15:15;;;;;;;5.87;2.90;;;12.00;99.90;;;;;;5098165;28;20461;-67
2022/11/03 10:17:43;;;;;;;7.80;3.60;;;12.00;99.90;;;;;;5098179;28;20827;-67
2022/11/03 10:20:12;;;;;;;7.00;3.20;;;12.20;99.90;;;;;;5098295;28;20518;-68
2022/11/03 10:22:39;;;;;;;3.70;3.00;;;12.20;99.90;;;;;;5097494;28;20843;-67
2022/11/03 10:25:34;;;;;;;11.67;3.53;;;12.30;99.90;;;;;;5097161;28;20914;-68
2022/11/03 10:28:16;;;;;;;6.73;2.73;;;12.30;99.90;;;;;;5097952;28;20437;-66
2022/11/03 10:30:50;;;;;;;9.27;2.50;;;12.40;99.90;;;;;;5097999;28;20586;-67
2022/11/03 10:33:32;;;;;;;6.13;2.30;;;12.50;99.90;;;;;;5097654;28;20564;-66
2022/11/03 10:36:00;;;;;;;6.43;2.50;;;12.60;99.90;;;;;;5095647;28;20485;-67
2022/11/03 10:38:30;;;;;;;7.27;2.60;;;12.60;99.90;;;;;;5097864;28;20548;-66
2022/11/03 10:41:11;;;;;;;6.97;2.50;;;12.60;99.90;;;;;;5098212;28;20552;-66
2022/11/03 10:43:38;;;;;;;15.10;3.20;;;12.60;99.90;;;;;;5098136;28;20433;-66
2022/11/03 10:46:15;;;;;;;5.87;2.63;;;12.70;99.90;;;;;;5097553;28;20494;-68
2022/11/03 10:48:42;;;;;;;4.73;2.50;;;12.70;99.90;;;;;;5097444;28;20471;-68
2022/11/03 10:51:12;;;;;;;6.13;2.73;;;12.90;99.90;;;;;;5097542;28;20509;-66
2022/11/03 10:53:42;;;;;;;5.20;2.67;;;12.90;99.90;;;;;;5098015;28;20560;-66
2022/11/03 10:56:11;;;;;;;5.77;2.97;;;13.00;99.90;;;;;;5097761;28;20493;-67
2022/11/03 10:58:38;;;;;;;8.70;2.77;;;13.10;99.90;;;;;;5097711;28;20788;-66
2022/11/03 11:01:06;;;;;;;5.87;2.50;;;13.10;99.90;;;;;;5097616;28;20504;-66
2022/11/03 11:03:38;;;;;;;8.10;2.57;;;13.10;99.90;;;;;;5097008;28;20826;-66
2022/11/03 11:06:05;;;;;;;7.40;2.77;;;13.10;99.90;;;;;;5096811;28;20965;-67
2022/11/03 11:08:32;;;;;;;6.67;2.30;;;13.20;99.90;;;;;;5097369;28;20453;-67
2022/11/03 11:11:06;;;;;;;8.77;2.70;;;13.30;99.90;;;;;;5097432;28;20532;-67
2022/11/03 11:13:34;;;;;;;7.10;2.80;;;13.50;99.90;;;;;;5097297;28;20518;-67
2022/11/03 11:16:02;;;;;;;4.23;2.70;;;13.50;99.90;;;;;;5096784;28;20489;-66
2022/11/03 11:19:09;;;;;;;7.33;2.50;;;13.60;99.90;;;;;;5096170;28;20481;-67
2022/11/03 11:22:11;;;;;;;7.43;2.63;;;13.60;99.90;;;;;;5097106;28;20821;-67
2022/11/03 11:25:00;;;;;;;10.40;2.63;;;13.60;99.90;;;;;;5093536;28;20531;-67
2022/11/03 11:28:06;;;;;;;4.40;2.30;;;13.60;99.90;;;;;;5090645;28;20489;-66
2022/11/03 11:31:27;;;;;;;5.13;2.87;;;13.50;99.90;;;;;;5096988;28;20897;-66
2022/11/03 11:34:27;;;;;;;7.50;2.80;;;13.50;99.90;;;;;;5096284;28;20791;-67
2022/11/03 11:37:27;;;;;;;5.40;2.90;;;13.50;99.90;;;;;;5096456;28;20453;-66
2022/11/03 11:39:54;;;;;;;4.43;3.13;;;13.50;99.90;;;;;;5096923;28;20464;-66
2022/11/03 11:42:21;;;;;;;5.57;3.10;;;13.50;99.90;;;;;;5097049;28;20442;-67
2022/11/03 11:45:02;;;;;;;7.70;3.73;;;13.60;99.90;;;;;;5096947;28;20498;-67
2022/11/03 11:47:43;;;;;;;4.43;2.60;;;13.50;99.90;;;;;;5096924;28;20761;-67
2022/11/03 11:50:37;;;;;;;3.70;2.80;;;13.50;99.90;;;;;;5096337;28;20469;-67
2022/11/03 11:53:19;;;;;;;7.40;2.57;;;13.50;99.90;;;;;;5096209;28;20880;-67
2022/11/03 11:55:53;;;;;;;7.60;3.10;;;13.60;99.90;;;;;;5096343;28;20481;-67
2022/11/03 11:58:24;;;;;;;8.47;3.13;;;13.60;99.90;;;;;;5097268;28;20567;-67
2022/11/03 12:00:57;;;;;;;12.93;8.00;;;13.60;99.90;;;;;;5095934;28;20514;-67
2022/11/03 12:03:30;;;;;;;6.97;3.23;;;13.60;99.90;;;;;;5096500;28;20525;-67
2022/11/03 12:05:56;;;;;;;7.43;3.60;;;13.60;99.90;;;;;;5096165;28;20437;-67
2022/11/03 12:08:29;;;;;;;4.00;2.40;;;13.60;99.90;;;;;;5096075;28;20538;-67
2022/11/03 12:10:58;;;;;;;5.77;3.23;;;13.70;99.90;;;;;;5095520;28;20553;-67
2022/11/03 12:13:51;;;;;;;9.20;3.83;;;13.50;99.90;;;;;;5096032;28;20971;-68
2022/11/03 12:16:32;;;;;;;8.00;3.20;;;13.50;99.90;;;;;;5092971;28;20536;-68
2022/11/03 12:19:34;;;;;;;5.87;2.60;;;13.50;99.90;;;;;;5096170;28;20481;-69
2022/11/03 12:22:01;;;;;;;6.97;2.53;;;13.60;99.90;;;;;;5095657;28;20437;-68
2022/11/03 12:24:49;;;;;;;6.70;2.30;;;13.60;99.90;;;;;;5096043;28;21004;-67
2022/11/03 12:27:41;;;;;;;11.93;2.60;;;13.60;99.90;;;;;;5095842;28;20473;-67
2022/11/03 12:30:15;;;;;;;5.47;2.77;;;13.50;99.90;;;;;;5087042;28;20457;-67
2022/11/03 12:32:42;;;;;;;7.17;2.60;;;13.50;99.90;;;;;;5096282;28;20469;-68
2022/11/03 12:35:12;;;;;;;5.27;3.57;;;13.50;99.90;;;;;;5096184;28;20947;-67
2022/11/03 12:37:39;;;;;;;6.93;2.47;;;13.60;99.90;;;;;;5095628;28;20859;-67
2022/11/03 12:40:08;;;;;;;5.20;3.07;;;13.60;99.90;;;;;;5095983;28;20467;-68
2022/11/03 12:42:35;;;;;;;6.90;3.57;;;13.60;99.90;;;;;;5095897;28;20817;-68
2022/11/03 12:45:02;;;;;;;6.17;2.70;;;13.60;99.90;;;;;;5095818;28;20492;-67
2022/11/03 12:47:29;;;;;;;8.50;2.73;;;13.60;99.90;;;;;;5096033;28;20453;-68
2022/11/03 12:49:55;;;;;;;3.67;2.03;;;13.70;99.90;;;;;;5095579;28;20547;-67
2022/11/03 12:52:24;;;;;;;6.83;2.80;;;13.70;99.90;;;;;;5095059;28;20568;-68
2022/11/03 12:54:51;;;;;;;6.17;2.77;;;13.70;99.90;;;;;;5095550;28;20471;-66
2022/11/03 12:57:18;;;;;;;6.43;3.03;;;13.80;99.90;;;;;;5095533;28;20461;-66
2022/11/03 12:59:45;;;;;;;10.80;2.83;;;13.90;99.90;;;;;;5095972;28;20563;-67
2022/11/03 13:02:12;;;;;;;6.20;3.43;;;13.90;99.90;;;;;;5095229;28;20457;-67
2022/11/03 13:04:39;;;;;;;7.70;2.60;;;13.90;99.90;;;;;;5095421;28;20491;-67
2022/11/03 13:07:05;;;;;;;7.83;2.77;;;13.90;99.90;;;;;;5095517;28;20535;-68
2022/11/03 13:09:35;;;;;;;6.27;2.87;;;13.90;99.90;;;;;;5095516;28;20540;-67
2022/11/03 13:14:46;;;;;;;6.70;2.83;;;13.80;99.90;;;;;;5095456;28;20558;-68
2022/11/03 13:17:13;;;;;;;5.50;2.97;;;13.80;99.90;;;;;;5095251;28;20521;-66
2022/11/03 13:19:40;;;;;;;9.63;3.37;;;13.80;99.90;;;;;;5096015;28;20628;-66
2022/11/03 13:22:07;;;;;;;8.17;3.40;;;13.90;99.90;;;;;;5095912;28;20465;-67
2022/11/03 13:24:35;;;;;;;7.63;2.90;;;14.10;99.90;;;;;;5095807;28;20518;-69
2022/11/03 13:27:02;;;;;;;11.40;3.73;;;14.30;99.90;;;;;;5095794;28;20525;-67